Flight Track Log - Related Links

Times and Time Zones

All times are in EDT time to prevent confusion due to time zone crossing. See the EJA929 flight status page for this flight to view local times or setup timezone preferences in your user account.

Time Position Orientation Groundspeed Altitude Reporting Facility
EDT Latitude Longitude Course Direction KTS MPH feet Rate Location/Type
Mon 09:32:42 PM 32.7667 -117.2500 301° West 229 264 4,200  Level Southern California TRACON
Mon 09:33:42 PM 32.8000 -117.3167 301° West 234 269 7,500 2,870 Climbing Southern California TRACON
Mon 09:34:14 PM 32.8186 -117.3411 312° West 227 261 8,600 1,596 Climbing Los Angeles Center
Mon 09:35:16 PM 32.8728 -117.4114 313° West 279 321 10,000 629 Climbing Los Angeles Center
Mon 09:36:18 PM 32.9383 -117.5028 311° West 347 399 9,900  Descending Los Angeles Center
Mon 09:37:20 PM 33.0092 -117.6000 311° West 383 441 10,000 49 Climbing Los Angeles Center
Mon 09:38:21 PM 33.0819 -117.6994 311° West 394 453 10,000  Level Los Angeles Center
Mon 09:39:23 PM 33.1722 -117.8208 312° West 404 465 10,000  Level Los Angeles Center
Mon 09:40:25 PM 33.2728 -117.8842 332° Northwest 410 472 10,000 -341 Level Los Angeles Center
Mon 09:41:26 PM 33.3556 -117.9314 335° Northwest 335 386 9,300 -1,171 Descending Los Angeles Center
Mon 09:42:28 PM 33.4317 -117.9753 334° Northwest 310 357 7,600 -1,597 Descending Los Angeles Center
Mon 09:43:30 PM 33.5036 -118.0175 334° Northwest 298 343 6,000 -774 Descending Los Angeles Center
Mon 09:44:32 PM 33.5783 -118.0481 341° North 290 334 6,000  Level Los Angeles Center
Mon 09:45:33 PM 33.6708 -118.0783 345° North 289 333 6,000  Level Los Angeles Center
Mon 09:46:35 PM 33.7289 -118.1406 318° Northwest 289 333 6,000  Level Los Angeles Center
Mon 09:47:37 PM 33.7783 -118.2111 310° West 284 327 6,000  Level Los Angeles Center
Mon 09:48:38 PM 33.8269 -118.2814 310° West 284 327 6,000  Level Los Angeles Center
Mon 09:49:40 PM 33.8764 -118.3508 311° West 283 326 6,000  Level Los Angeles Center
Mon 09:50:42 PM 33.9353 -118.4333 311° West 278 320 6,000 -244 Level Los Angeles Center
Mon 09:51:43 PM 33.9997 -118.4856 326° Northwest 272 313 5,500 -488 Descending Los Angeles Center
Mon 09:52:45 PM 34.0542 -118.5317 325° Northwest 241 277 5,000 -244 Descending Los Angeles Center
Mon 09:53:46 PM 34.1089 -118.5625 335° Northwest 230 265 5,000 -537 Level Los Angeles Center
Mon 09:54:48 PM 34.1681 -118.5586 North 218 251 3,900 -1,210 Descending Los Angeles Center
Mon 09:55:50 PM 34.2294 -118.5522 North 218 251 2,500 -927 Descending Los Angeles Center
Mon 09:56:51 PM 34.2650 -118.5267 31° Northeast 191 220 2,000 -537 Descending Los Angeles Center
Mon 09:57:53 PM 34.2364 -118.4925 135° Southeast 153 176 1,400 -387 Descending Los Angeles Center
Mon 09:58:55 PM 34.2031 -118.4961 185° South 147 169 1,200 -194 Descending Los Angeles Center

Login

Don't have an account? Register now (free) for customized features, flight alerts, and more!